• Join FlightAware (Why Join?)
  • Login
  • US Flag 
01:15AM EDT


 

Airport Tracker/Info


-or-


 

Live Flight TrackerFlight Track Log ✈ DAL1937 ✈ 28-May-2013 ✈ KBWI - KDTW

Flight Track Log - Related Links

Times and Time Zones

All times are in EDT time to prevent confusion due to time zone crossing. See the DAL1937 flight status page for this flight to view local times or setup timezone preferences in your user account.

Time Position Orientation Groundspeed Altitude Reporting Facility
EDT Latitude Longitude Course Direction KTS MPH feet Rate Location/Type
06:14AM 39.1833 -76.7500 303° West 211 243 2,400  Level Potomac TRACON
06:15AM 39.2333 -76.8167 314° West 272 313 5,500 3,420 Climbing Potomac TRACON
06:16AM 39.2000 -77.0412 270° West  Level FlightAware Approximate
06:16AM 39.3000 -76.8667 330° Northwest 271 312 9,300  Level Potomac TRACON
06:17AM 39.2142 -77.1571 339° North  Level FlightAware Approximate
06:17AM 39.3500 -76.9500 308° West 294 338 11,200  Level Potomac TRACON
06:18AM 39.2959 -77.2291 322° Northwest  Level FlightAware Approximate
06:19AM 39.3721 -77.3109 303° West  Level FlightAware Approximate
06:19AM 39.3811 -77.1139 284° West 361 415 15,300  Level Washington Center
06:20AM 39.3981 -77.2406 280° West 372 428 17,800 2,520 Climbing Washington Center
06:21AM 39.4214 -77.3700 283° West 372 428 20,300 2,160 Climbing Washington Center
06:22AM 39.4422 -77.5050 281° West 372 428 22,300 1,920 Climbing Washington Center
06:23AM 39.4711 -77.6428 285° West 382 440 24,300 1,920 Climbing Washington Center
06:24AM 39.5125 -77.7758 292° West 388 447 26,100 1,620 Climbing Washington Center
06:25AM 39.5539 -77.9142 291° West 400 460 27,600 1,440 Climbing Washington Center
06:26AM 39.6353 -78.1786 292° West 432 497 30,300 1,560 Climbing Cleveland Center
06:27AM 39.6778 -78.3200 291° West 432 497 32,000 1,080 Climbing Cleveland Center
06:28AM 39.7181 -78.4592 291° West 427 491 32,500 960 Climbing Cleveland Center
06:29AM 39.7581 -78.5956 291° West 422 486 34,000 720 Climbing Cleveland Center
06:30AM 39.7981 -78.7511 289° West 417 480 34,000  Level Cleveland Center
06:31AM 39.8378 -78.8853 291° West 406 467 34,000  Level Cleveland Center
06:32AM 39.8769 -79.0058 293° West 401 461 34,000  Level Cleveland Center
06:33AM 39.9142 -79.1406 290° West 401 461 34,000  Level Cleveland Center
06:34AM 39.9533 -79.2778 290° West 407 468 34,000  Level Cleveland Center
06:35AM 40.0028 -79.4097 296° West 407 468 34,000  Level Cleveland Center
06:36AM 40.0664 -79.5333 304° West 407 468 34,000  Level Cleveland Center
06:37AM 40.1300 -79.6572 304° West 407 468 34,000  Level Cleveland Center
06:38AM 40.1936 -79.7814 304° West 412 474 34,000  Level Cleveland Center
06:39AM 40.2569 -79.9056 304° West 412 474 34,000  Level Cleveland Center
06:40AM 40.3244 -80.0467 302° West 412 474 34,000  Level Cleveland Center
06:41AM 40.3875 -80.1742 303° West 412 474 34,000 -600 Level Cleveland Center
06:42AM 40.4503 -80.2994 303° West 412 474 32,900 -2,040 Descending Cleveland Center
06:43AM 40.5172 -80.4219 306° West 412 474 30,000 -1,500 Descending Cleveland Center
06:44AM 40.5819 -80.5503 304° West 417 480 30,000  Level Cleveland Center
06:45AM 40.6425 -80.6817 301° West 422 486 30,000  Level Cleveland Center
06:46AM 40.7131 -80.8078 306° West 427 491 30,000  Level Cleveland Center
06:47AM 40.7817 -80.9342 306° West 427 491 30,000  Level Cleveland Center
06:48AM 40.8356 -81.0358 305° West 422 486 30,000  Level Cleveland Center
06:49AM 40.9036 -81.1736 303° West 422 486 30,000  Level Cleveland Center
06:50AM 40.9717 -81.3036 305° West 422 486 30,000  Level Cleveland Center
06:51AM 41.0375 -81.4311 304° West 422 486 30,000  Level Cleveland Center
06:52AM 41.1094 -81.5725 304° West 422 486 30,000  Level Cleveland Center
06:53AM 41.1811 -81.7006 307° West 427 491 30,000 -480 Level Cleveland Center
06:54AM 41.2486 -81.8314 304° West 427 491 29,100 -960 Descending Cleveland Center
06:55AM 41.3139 -81.9597 304° West 427 491 28,100 -1,740 Descending Cleveland Center
06:56AM 41.3747 -82.0828 303° West 416 479 25,700 -2,220 Descending Cleveland Center
06:57AM 41.4294 -82.1922 304° West 410 472 23,700 -2,100 Descending Cleveland Center
06:58AM 41.4883 -82.3100 304° West 389 448 21,500 -2,220 Descending Cleveland Center
06:59AM 41.5450 -82.4197 305° West 375 432 19,300 -2,400 Descending Cleveland Center
07:00AM 41.5714 -82.4706 305° West 359 413 18,300 -2,220 Descending Cleveland Center
07:00AM 41.6014 -82.5325 303° West 370 426 17,100 -2,160 Descending Cleveland Center
07:01AM 41.6275 -82.5889 302° West 354 407 15,900 -2,340 Descending Cleveland Center
07:01AM 41.6578 -82.6481 304° West 359 413 14,800 -2,400 Descending Cleveland Center
07:02AM 41.6881 -82.7019 307° West 345 397 13,500 -2,340 Descending Cleveland Center
07:02AM 41.7100 -82.7556 299° West 348 400 12,500 -1,620 Descending Cleveland Center
07:03AM 41.7425 -82.8039 312° West 342 394 11,900 -540 Descending Cleveland Center
07:03AM 41.7750 -82.8439 317° Northwest 343 395 12,000 180 Climbing Cleveland Center
07:04AM 41.8117 -82.8872 319° Northwest 337 388 12,100  Climbing Cleveland Center
07:04AM 41.8419 -82.9356 310° West 338 389 12,000  Descending Cleveland Center
07:05AM 41.8744 -82.9814 314° West 338 389 12,100 -120 Climbing Cleveland Center
07:05AM 41.9028 -83.0244 311° West 333 383 11,900 -120 Descending Cleveland Center
07:06AM 41.9472 -83.0875 313° West 337 388 12,000  Climbing Cleveland Center
07:06AM 41.9608 -83.1242 297° West 333 383 11,900 -120 Descending Cleveland Center
07:07AM 41.9947 -83.1956 303° West 337 388 11,900  Level Cleveland Center
07:07AM 42.0086 -83.2294 299° West 339 390 11,900  Level Cleveland Center
07:08AM 42.0522 -83.3236 302° West 309 356 11,900 60 Level Cleveland Center
07:09AM 42.0781 -83.3808 301° West 283 326 12,000  Climbing Cleveland Center
07:09AM 42.0919 -83.4122 301° West 287 330 11,900 -120 Descending Cleveland Center
07:10AM 42.1389 -83.4478 331° Northwest 255 293 11,900  Level Cleveland Center
07:11AM 42.2197 -83.4656 351° North 254 292 11,900 -600 Level Cleveland Center
07:12AM 42.2781 -83.4653 360° North 255 293 10,800 -1,320 Descending Cleveland Center
07:13AM 42.3453 -83.4458 12° North 263 303 9,500 -1,260 Descending Cleveland Center
07:14AM 42.4133 -83.3956 29° Northeast 260 299 8,300 -1,080 Descending Cleveland Center
07:15AM 42.4767 -83.3561 25° Northeast 247 284 7,400 -720 Descending Cleveland Center
07:16AM 42.5339 -83.3278 20° North 216 249 6,900 -540 Descending Cleveland Center
07:17AM 42.5911 -83.2878 27° Northeast 225 259 6,300 -600 Descending Cleveland Center